Arden, Nevada
Current Conditions -  °F | °C
As of 9:56 PM on Saturday 25 Oct 2014 (Local Time) from KLAS Reporting Station
Scattered Clouds Scattered Clouds  
Wind Chill: 76°   Ceiling: Unl
Heat Index: 76°   Visibility: 10mi
Dew Point: 40°   Wind: 14mph
Humidity: 27%   Direction: 200°SSW
Pressure: 29.91"   Gusts: NA
Location:  36.079°N, 115.211°W
Report Text: KLAS 260456Z 20012KT 10SM FEW120 SCT180 24/04 A2991 RMK AO2 SLP106 T02440044
Loading
Personal Weather Stations






























Interactive Weather Map
Tropical Storm Tracking
New forecast layout! Learn more

10-Day Weather Forecast

Advertisements
Track Severe Weather on mobile